Time;durP1;ratioP1;P1;durP2;ratioP2;P2;SDS_P1;SDS_P2;PMS_P1;PMS_P2;Temp;Humidity;BMP_temperature;BMP_pressure;BME280_temperature;BME280_humidity;BME280_pressure;Samples;Min_cycle;Max_cycle;Signal;HPM_P1;HPM_P2
2023/06/25 00:01:45;;;;;;;;;;;;;;;24.69;42.47;96140.97;10501808;28;1944;-64
2023/06/25 00:06:45;;;;;;;;;;;;;;;24.68;42.31;96141.28;10497254;28;1930;-64
2023/06/25 00:11:45;;;;;;;;;;;;;;;24.68;42.32;96142.06;10507069;28;2032;-64
2023/06/25 00:16:45;;;;;;;;;;;;;;;24.68;42.20;96133.31;10504144;28;2022;-64
2023/06/25 00:21:46;;;;;;;;;;;;;;;24.68;42.18;96128.00;10517093;28;2029;-64
2023/06/25 00:26:46;;;;;;;;;;;;;;;24.69;42.47;96119.00;10507328;28;2210;-64
2023/06/25 00:31:46;;;;;;;;;;;;;;;24.68;42.42;96117.41;10506356;28;1961;-64
2023/06/25 00:36:51;;;;;;;;;;;;;;;24.68;42.04;96114.75;10506843;28;2131;-64
2023/06/25 00:41:52;;;;;;;;;;;;;;;24.68;42.14;96115.56;10490678;28;4701;-64
2023/06/25 00:46:52;;;;;;;;;;;;;;;24.67;42.40;96110.53;10506179;28;2219;-64
2023/06/25 00:51:52;;;;;;;;;;;;;;;24.66;42.42;96107.09;10503998;28;1891;-64
2023/06/25 00:56:53;;;;;;;;;;;;;;;24.67;42.09;96106.00;10489062;28;1922;-64
2023/06/25 01:01:58;;;;;;;;;;;;;;;24.68;42.24;96097.00;10508928;28;2334;-64
2023/06/25 01:07:00;;;;;;;;;;;;;;;24.67;42.42;96092.75;10499813;28;1923;-64
2023/06/25 01:12:00;;;;;;;;;;;;;;;24.68;42.11;96097.00;10518414;28;2002;-64
2023/06/25 01:17:01;;;;;;;;;;;;;;;24.68;42.12;96085.59;10503738;28;1973;-64
2023/06/25 01:22:02;;;;;;;;;;;;;;;24.67;42.17;96084.00;10507177;28;2295;-64
2023/06/25 01:27:04;;;;;;;;;;;;;;;24.68;42.27;96077.66;10499985;28;1942;-64
2023/06/25 01:32:06;;;;;;;;;;;;;;;24.67;42.18;96076.06;10502337;28;2012;-64
2023/06/25 01:37:07;;;;;;;;;;;;;;;24.67;42.35;96074.22;10502700;28;1898;-64
2023/06/25 01:42:07;;;;;;;;;;;;;;;24.67;42.04;96060.94;10504176;28;4712;-64
2023/06/25 01:47:07;;;;;;;;;;;;;;;24.66;41.89;96058.59;10503439;28;2049;-64
2023/06/25 01:52:08;;;;;;;;;;;;;;;24.66;41.94;96067.34;10505850;28;1998;-64
2023/06/25 01:57:08;;;;;;;;;;;;;;;24.67;42.00;96063.59;10507445;28;1957;-65
2023/06/25 02:02:08;;;;;;;;;;;;;;;24.67;42.07;96057.50;10500532;28;1921;-65
2023/06/25 02:07:08;;;;;;;;;;;;;;;24.67;41.98;96049.56;10505874;28;2051;-63
2023/06/25 02:12:09;;;;;;;;;;;;;;;24.66;41.93;96055.94;10504039;28;1969;-64
2023/06/25 02:17:09;;;;;;;;;;;;;;;24.64;41.92;96043.00;10516089;28;2430;-64
2023/06/25 02:22:09;;;;;;;;;;;;;;;24.64;41.79;96047.50;10519858;28;1595;-64
2023/06/25 02:27:09;;;;;;;;;;;;;;;24.64;41.71;96047.50;10515647;28;1995;-63
2023/06/25 02:32:10;;;;;;;;;;;;;;;24.63;41.59;96054.66;10511027;28;1994;-64
2023/06/25 02:37:11;;;;;;;;;;;;;;;24.61;41.39;96045.41;10508582;28;1906;-64
2023/06/25 02:42:11;;;;;;;;;;;;;;;24.59;41.47;96040.41;10507328;28;4726;-64
2023/06/25 02:47:11;;;;;;;;;;;;;;;24.60;41.49;96046.50;10511896;28;2073;-64
2023/06/25 02:52:11;;;;;;;;;;;;;;;24.57;41.38;96047.09;10516063;28;1926;-65
2023/06/25 02:57:12;;;;;;;;;;;;;;;24.56;41.18;96040.22;10517000;28;1902;-64
2023/06/25 03:02:12;;;;;;;;;;;;;;;24.57;41.35;96045.22;10512555;28;1882;-65
2023/06/25 03:07:13;;;;;;;;;;;;;;;24.58;41.43;96041.50;10520285;28;1949;-65
2023/06/25 03:12:13;;;;;;;;;;;;;;;24.59;41.77;96045.72;10491740;28;2077;-64
2023/06/25 03:17:13;;;;;;;;;;;;;;;24.59;41.74;96034.31;10513182;28;2019;-64
2023/06/25 03:22:13;;;;;;;;;;;;;;;24.60;41.46;96034.06;10510519;28;2132;-65
2023/06/25 03:27:14;;;;;;;;;;;;;;;24.60;41.62;96034.06;10515704;28;1917;-64
2023/06/25 03:32:14;;;;;;;;;;;;;;;24.60;41.74;96030.63;10514285;28;1980;-65
2023/06/25 03:37:14;;;;;;;;;;;;;;;24.60;41.57;96034.06;10511755;28;1991;-65
2023/06/25 03:42:14;;;;;;;;;;;;;;;24.60;41.63;96031.41;10512359;28;4653;-65
2023/06/25 03:47:15;;;;;;;;;;;;;;;24.60;41.64;96025.31;10513232;28;1938;-65
2023/06/25 03:52:15;;;;;;;;;;;;;;;24.61;41.58;96021.56;10515214;28;2026;-64
2023/06/25 03:57:15;;;;;;;;;;;;;;;24.61;41.80;96024.22;10516336;28;1966;-64
2023/06/25 04:02:16;;;;;;;;;;;;;;;24.60;41.49;96018.16;10520313;28;1858;-65
2023/06/25 04:07:16;;;;;;;;;;;;;;;24.61;41.51;96024.22;10514519;28;1930;-65
2023/06/25 04:12:16;;;;;;;;;;;;;;;24.60;41.37;96022.66;10513016;28;2292;-65
2023/06/25 04:17:16;;;;;;;;;;;;;;;24.60;41.51;96020.81;10515030;28;2024;-65
2023/06/25 04:22:17;;;;;;;;;;;;;;;24.59;41.47;96013.91;10518154;28;1886;-65
2023/06/25 04:27:17;;;;;;;;;;;;;;;24.60;41.54;96015.50;10519361;28;1915;-65
2023/06/25 04:32:17;;;;;;;;;;;;;;;24.60;41.50;96012.06;10509228;28;2006;-65
2023/06/25 04:37:17;;;;;;;;;;;;;;;24.60;41.37;96014.72;10489604;28;1951;-65
2023/06/25 04:42:18;;;;;;;;;;;;;;;24.60;41.43;96014.72;10509216;28;4645;-65
2023/06/25 04:47:18;;;;;;;;;;;;;;;24.59;41.41;96011.25;10503057;28;2167;-65
2023/06/25 04:52:19;;;;;;;;;;;;;;;24.59;41.28;96013.13;10506792;28;2166;-65
2023/06/25 04:57:19;;;;;;;;;;;;;;;24.60;41.55;96012.84;10484895;28;1957;-65
2023/06/25 05:02:19;;;;;;;;;;;;;;;24.59;41.64;96008.63;10500057;28;2049;-64
2023/06/25 05:07:19;;;;;;;;;;;;;;;24.60;41.64;96009.41;10498380;28;2403;-64
2023/06/25 05:12:20;;;;;;;;;;;;;;;24.60;41.26;96018.16;10504729;28;1947;-65
2023/06/25 05:17:20;;;;;;;;;;;;;;;24.60;41.63;96018.16;10510991;28;1941;-65
2023/06/25 05:22:20;;;;;;;;;;;;;;;24.61;41.60;96021.56;10504115;28;2068;-65
2023/06/25 05:27:20;;;;;;;;;;;;;;;24.61;41.62;96013.63;10506937;28;2051;-65
2023/06/25 05:32:21;;;;;;;;;;;;;;;24.61;41.47;96016.25;10509205;28;2004;-65
2023/06/25 05:37:21;;;;;;;;;;;;;;;24.61;41.67;96025.00;10507307;28;2203;-65
2023/06/25 05:42:21;;;;;;;;;;;;;;;24.61;41.53;96018.91;10509491;28;4661;-65
2023/06/25 05:47:21;;;;;;;;;;;;;;;24.60;41.55;96026.09;10508932;28;1894;-65
2023/06/25 05:52:22;;;;;;;;;;;;;;;24.62;41.47;96020.50;10508865;28;1894;-65
2023/06/25 05:57:23;;;;;;;;;;;;;;;24.61;41.44;96016.25;10506536;28;1974;-63
2023/06/25 06:02:23;;;;;;;;;;;;;;;24.61;41.40;96021.56;10507127;28;2408;-65
2023/06/25 06:07:23;;;;;;;;;;;;;;;24.60;41.35;96020.00;10505352;28;1869;-65
2023/06/25 06:12:24;;;;;;;;;;;;;;;24.60;41.47;96020.81;10502943;28;1939;-65
2023/06/25 06:17:25;;;;;;;;;;;;;;;24.60;41.48;96014.72;10519289;28;2032;-65
2023/06/25 06:22:25;;;;;;;;;;;;;;;24.61;41.68;96008.31;10502828;28;2428;-65
2023/06/25 06:27:25;;;;;;;;;;;;;;;24.62;41.56;96007.25;10507923;28;2037;-65
2023/06/25 06:32:26;;;;;;;;;;;;;;;24.61;41.84;96001.16;10514233;28;1938;-65
2023/06/25 06:37:26;;;;;;;;;;;;;;;24.63;41.49;96004.31;10516857;28;1937;-65
2023/06/25 06:42:26;;;;;;;;;;;;;;;24.64;41.61;95999.78;10511750;28;4653;-65
2023/06/25 06:47:26;;;;;;;;;;;;;;;24.62;41.69;95999.31;10521020;28;2097;-65
2023/06/25 06:52:27;;;;;;;;;;;;;;;24.63;41.71;96016.75;10512397;28;1988;-65
2023/06/25 06:57:27;;;;;;;;;;;;;;;24.64;41.74;95999.78;10512907;28;1870;-65
2023/06/25 07:02:27;;;;;;;;;;;;;;;24.65;41.73;95993.41;10511620;28;2023;-65
2023/06/25 07:07:27;;;;;;;;;;;;;;;24.64;41.81;95995.28;10509345;28;2085;-65
2023/06/25 07:12:28;;;;;;;;;;;;;;;24.63;41.72;95983.09;10511417;28;2052;-65
2023/06/25 07:17:28;;;;;;;;;;;;;;;24.64;41.55;95983.88;10517630;28;2131;-65
2023/06/25 07:22:28;;;;;;;;;;;;;;;24.63;41.56;95969.84;10515503;28;1882;-65
2023/06/25 07:27:29;;;;;;;;;;;;;;;24.62;41.55;95978.09;10512538;28;1995;-64
2023/06/25 07:32:29;;;;;;;;;;;;;;;24.63;41.38;95982.31;10506644;28;1906;-65
2023/06/25 07:37:29;;;;;;;;;;;;;;;24.63;41.66;95977.78;10487891;28;2066;-65
2023/06/25 07:42:30;;;;;;;;;;;;;;;24.62;41.84;95976.25;10508253;28;4700;-65
2023/06/25 07:47:30;;;;;;;;;;;;;;;24.61;41.27;95969.34;10515181;28;1915;-65
2023/06/25 07:52:30;;;;;;;;;;;;;;;24.62;41.22;95978.88;10508110;28;1949;-64
2023/06/25 07:57:31;;;;;;;;;;;;;;;24.61;41.18;95976.50;10505598;28;2349;-65
2023/06/25 08:02:31;;;;;;;;;;;;;;;24.60;41.37;95970.44;10515073;28;1974;-65
2023/06/25 08:07:31;;;;;;;;;;;;;;;24.60;41.57;95967.78;10517711;28;1835;-65
2023/06/25 08:12:32;;;;;;;;;;;;;;;24.61;41.58;95968.56;10515821;28;1941;-65
2023/06/25 08:17:32;;;;;;;;;;;;;;;24.61;41.01;95961.41;10507259;28;1894;-65
2023/06/25 08:22:32;;;;;;;;;;;;;;;24.59;41.08;95960.13;10502665;28;1978;-65
2023/06/25 08:27:33;;;;;;;;;;;;;;;24.59;40.83;95963.56;10510207;28;1953;-65
2023/06/25 08:32:33;;;;;;;;;;;;;;;24.60;41.09;95964.34;10505874;28;1965;-64
2023/06/25 08:37:33;;;;;;;;;;;;;;;24.59;41.07;95954.81;10504480;28;2084;-65
2023/06/25 08:42:33;;;;;;;;;;;;;;;24.60;40.88;95961.69;10509550;28;4636;-65
2023/06/25 08:47:36;;;;;;;;;;;;;;;24.59;41.20;95950.31;10487989;28;1916;-65
2023/06/25 08:52:38;;;;;;;;;;;;;;;24.59;40.85;95962.75;10505334;28;2401;-65
2023/06/25 08:57:38;;;;;;;;;;;;;;;24.59;40.90;95957.47;10505028;28;2001;-65
2023/06/25 09:02:39;;;;;;;;;;;;;;;24.60;40.94;95953.75;10509689;28;1904;-65
2023/06/25 09:07:45;;;;;;;;;;;;;;;24.58;40.84;95953.25;10505499;28;1953;-65
2023/06/25 09:12:49;;;;;;;;;;;;;;;24.59;41.13;95949.50;10503107;28;1976;-64
2023/06/25 09:17:53;;;;;;;;;;;;;;;24.58;40.62;95940.00;10502618;28;1866;-65
2023/06/25 09:22:54;;;;;;;;;;;;;;;24.59;41.00;95949.50;10513125;28;1969;-65
2023/06/25 09:27:55;;;;;;;;;;;;;;;24.59;41.20;95945.00;10509956;28;1967;-65
2023/06/25 09:32:55;;;;;;;;;;;;;;;24.60;41.13;95943.94;10499267;28;1973;-65
2023/06/25 09:37:55;;;;;;;;;;;;;;;24.60;41.29;95941.28;10501084;28;2001;-65
2023/06/25 09:42:56;;;;;;;;;;;;;;;24.61;41.47;95926.16;10502669;28;4578;-65
2023/06/25 09:47:57;;;;;;;;;;;;;;;24.61;41.07;95942.84;10501061;28;2615;-65
2023/06/25 09:52:58;;;;;;;;;;;;;;;24.60;41.21;95930.69;10503936;28;2128;-64
2023/06/25 09:57:59;;;;;;;;;;;;;;;24.61;40.89;95942.06;10499716;28;1973;-65
2023/06/25 10:02:59;;;;;;;;;;;;;;;24.59;40.06;95936.25;10496197;28;2060;-65
2023/06/25 10:07:59;;;;;;;;;;;;;;;24.59;40.18;95917.72;10517934;28;2213;-65
2023/06/25 10:13:03;;;;;;;;;;;;;;;24.57;40.74;95922.53;10501422;28;1918;-65
2023/06/25 10:18:04;;;;;;;;;;;;;;;24.58;40.62;95921.44;10505181;28;1831;-65
2023/06/25 10:23:07;;;;;;;;;;;;;;;24.58;40.67;95908.19;10490507;28;1914;-65
2023/06/25 10:28:08;;;;;;;;;;;;;;;24.58;41.07;95908.19;10498198;28;1890;-65
2023/06/25 10:33:09;;;;;;;;;;;;;;;24.59;41.38;95912.41;10508228;28;1886;-65
2023/06/25 10:38:09;;;;;;;;;;;;;;;24.60;41.50;95903.38;10492770;28;2081;-65
2023/06/25 10:43:09;;;;;;;;;;;;;;;24.60;41.11;95906.84;10500324;28;4685;-65
2023/06/25 10:48:12;;;;;;;;;;;;;;;24.62;41.04;95901.22;10501720;28;1874;-64
2023/06/25 10:53:13;;;;;;;;;;;;;;;24.63;40.76;95908.88;10502372;28;2018;-65
2023/06/25 10:58:14;;;;;;;;;;;;;;;24.62;40.80;95901.22;10499464;28;1906;-65
2023/06/25 11:03:14;;;;;;;;;;;;;;;24.62;41.08;95893.28;10501768;28;1930;-65
2023/06/25 11:08:15;;;;;;;;;;;;;;;24.62;40.77;95893.28;10508787;28;2059;-65
2023/06/25 11:13:15;;;;;;;;;;;;;;;24.62;40.67;95882.69;10513632;28;1987;-65
2023/06/25 11:18:15;;;;;;;;;;;;;;;24.64;40.43;95899.06;10505394;28;1905;-65
2023/06/25 11:23:16;;;;;;;;;;;;;;;24.64;40.57;95881.31;10486867;28;1938;-64
2023/06/25 11:28:16;;;;;;;;;;;;;;;24.64;40.53;95888.47;10502305;28;1972;-64
2023/06/25 11:33:16;;;;;;;;;;;;;;;24.64;40.72;95876.00;10510365;28;1918;-65
2023/06/25 11:38:26;;;;;;;;;;;;;;;24.65;40.38;95885.50;10505452;28;2021;-64
2023/06/25 11:43:27;;;;;;;;;;;;;;;24.65;40.27;95882.06;10512553;28;4649;-64
2023/06/25 11:48:28;;;;;;;;;;;;;;;24.64;40.30;95883.16;10503014;28;2049;-65
2023/06/25 11:53:28;;;;;;;;;;;;;;;24.64;40.19;95872.56;10500919;28;2024;-64
2023/06/25 11:58:29;;;;;;;;;;;;;;;24.64;40.56;95868.06;10503323;28;1893;-65
2023/06/25 12:03:30;;;;;;;;;;;;;;;24.63;40.35;95861.16;10500644;28;1957;-65
2023/06/25 12:08:30;;;;;;;;;;;;;;;24.63;40.33;95858.53;10491754;28;1910;-65
2023/06/25 12:13:30;;;;;;;;;;;;;;;24.63;40.10;95861.16;10508472;28;1945;-65
2023/06/25 12:18:30;;;;;;;;;;;;;;;24.62;40.40;95856.16;10498598;28;1886;-65
2023/06/25 12:23:31;;;;;;;;;;;;;;;24.62;40.15;95858.81;10506427;28;2108;-65
2023/06/25 12:28:31;;;;;;;;;;;;;;;24.62;40.05;95848.22;10510174;28;2006;-65
2023/06/25 12:33:31;;;;;;;;;;;;;;;24.62;40.39;95848.22;10508077;28;1902;-65
2023/06/25 12:38:32;;;;;;;;;;;;;;;24.66;40.27;95854.50;10496925;28;1911;-65
2023/06/25 12:43:32;;;;;;;;;;;;;;;24.64;40.08;95852.16;10504905;28;4688;-65
2023/06/25 12:48:32;;;;;;;;;;;;;;;24.63;39.94;95845.25;10511335;28;1890;-65
2023/06/25 12:53:32;;;;;;;;;;;;;;;24.62;39.71;95830.47;10502592;28;2141;-65
2023/06/25 12:58:33;;;;;;;;;;;;;;;24.64;39.57;95835.44;10509642;28;1921;-65
2023/06/25 13:03:33;;;;;;;;;;;;;;;24.66;39.19;95822.69;10505157;28;1913;-64
2023/06/25 13:08:33;;;;;;;;;;;;;;;24.65;39.77;95826.41;10513094;28;1846;-64
2023/06/25 13:13:33;;;;;;;;;;;;;;;24.67;40.22;95818.94;10513697;28;1890;-64
2023/06/25 13:18:37;;;;;;;;;;;;;;;24.66;40.24;95823.47;10514852;28;2003;-63
2023/06/25 13:23:38;;;;;;;;;;;;;;;24.68;40.26;95817.88;10503751;28;1963;-65
2023/06/25 13:28:38;;;;;;;;;;;;;;;24.70;39.88;95807.75;10501721;28;2081;-66
2023/06/25 13:33:38;;;;;;;;;;;;;;;24.70;40.41;95807.75;10495646;28;1929;-68
2023/06/25 13:38:40;;;;;;;;;;;;;;;24.72;40.39;95818.84;10492289;28;1890;-68
2023/06/25 13:43:40;;;;;;;;;;;;;;;24.72;40.76;95814.34;10500993;28;4443;-68
2023/06/25 13:48:40;;;;;;;;;;;;;;;24.73;40.64;95817.78;10508808;28;2052;-72
2023/06/25 13:53:42;;;;;;;;;;;;;;;24.74;40.39;95798.94;10504091;28;1968;-68
2023/06/25 13:58:42;;;;;;;;;;;;;;;24.73;40.16;95794.72;10505583;28;1918;-68
2023/06/25 14:03:43;;;;;;;;;;;;;;;24.74;40.10;95790.19;10501774;28;1909;-68
2023/06/25 14:08:43;;;;;;;;;;;;;;;24.73;40.05;95788.63;10509547;28;1850;-67
2023/06/25 14:13:43;;;;;;;;;;;;;;;24.74;39.68;95790.19;10502705;28;2098;-65
2023/06/25 14:18:44;;;;;;;;;;;;;;;24.74;39.59;95798.16;10488677;28;1815;-65
2023/06/25 14:23:44;;;;;;;;;;;;;;;24.73;39.79;95776.16;10493812;28;1847;-62
2023/06/25 14:28:44;;;;;;;;;;;;;;;24.73;39.72;95773.50;10506243;28;2292;-60
2023/06/25 14:33:44;;;;;;;;;;;;;;;24.73;39.85;95775.38;10502890;28;1890;-63
2023/06/25 14:38:45;;;;;;;;;;;;;;;24.73;39.79;95776.16;10502909;28;1923;-69
2023/06/25 14:43:45;;;;;;;;;;;;;;;24.75;39.88;95773.22;10483944;28;4688;-66
2023/06/25 14:48:46;;;;;;;;;;;;;;;24.76;40.14;95767.63;10519521;28;1842;-66
2023/06/25 14:53:47;;;;;;;;;;;;;;;24.76;40.17;95762.31;10504233;28;1917;-66
2023/06/25 14:58:47;;;;;;;;;;;;;;;24.79;40.40;95756.41;10511621;28;1874;-66
2023/06/25 15:03:47;;;;;;;;;;;;;;;24.79;40.65;95758.28;10513596;28;1859;-67
2023/06/25 15:08:48;;;;;;;;;;;;;;;24.81;40.22;95756.13;10497749;28;1850;-67
2023/06/25 15:13:48;;;;;;;;;;;;;;;24.81;40.61;95761.41;10508325;28;1886;-65
2023/06/25 15:18:48;;;;;;;;;;;;;;;24.82;40.64;95757.69;10486561;22;1844;-67
2023/06/25 15:23:49;;;;;;;;;;;;;;;24.86;40.35;95750.69;10402089;28;1933;-64
2023/06/25 15:28:49;;;;;;;;;;;;;;;24.84;40.72;95745.69;10405373;28;1879;-64
2023/06/25 15:33:50;;;;;;;;;;;;;;;24.83;40.63;95743.34;10402823;28;1988;-65
2023/06/25 15:38:50;;;;;;;;;;;;;;;24.86;40.66;95742.72;10382373;28;2043;-65
2023/06/25 15:43:50;;;;;;;;;;;;;;;24.86;40.60;95732.13;10408358;28;4803;-65
2023/06/25 15:48:51;;;;;;;;;;;;;;;24.84;40.59;95723.69;10400305;28;1977;-64
2023/06/25 15:53:51;;;;;;;;;;;;;;;24.84;40.26;95729.78;10407780;28;1910;-66
2023/06/25 15:58:51;;;;;;;;;;;;;;;24.84;40.61;95724.47;10403737;28;1931;-66
2023/06/25 16:03:52;;;;;;;;;;;;;;;24.83;40.56;95706.22;10388084;28;1878;-65
2023/06/25 16:08:52;;;;;;;;;;;;;;;24.82;40.30;95713.41;10406554;28;1905;-64
2023/06/25 16:13:53;;;;;;;;;;;;;;;24.84;40.27;95705.13;10401853;28;1973;-64
2023/06/25 16:18:54;;;;;;;;;;;;;;;24.86;40.61;95708.25;10408646;28;1925;-64
2023/06/25 16:23:54;;;;;;;;;;;;;;;24.87;40.86;95704.53;10405311;28;2356;-64
2023/06/25 16:28:54;;;;;;;;;;;;;;;24.87;40.89;95712.50;10400381;28;1872;-64
2023/06/25 16:33:54;;;;;;;;;;;;;;;24.88;41.12;95709.53;10399240;28;1902;-65
2023/06/25 16:38:55;;;;;;;;;;;;;;;24.89;40.97;95710.31;10404177;28;2012;-64
2023/06/25 16:43:55;;;;;;;;;;;;;;;24.89;41.04;95711.09;10404475;28;4681;-63
2023/06/25 16:48:55;;;;;;;;;;;;;;;24.91;41.07;95708.16;10397681;28;1828;-64
2023/06/25 16:53:56;;;;;;;;;;;;;;;24.92;41.34;95715.00;10400430;28;1972;-64
2023/06/25 16:58:56;;;;;;;;;;;;;;;24.92;41.39;95712.34;10383889;28;1868;-63
2023/06/25 17:03:57;;;;;;;;;;;;;;;24.92;41.29;95705.19;10401759;28;2066;-63
2023/06/25 17:08:57;;;;;;;;;;;;;;;24.92;41.46;95715.81;10400873;28;1966;-63
2023/06/25 17:13:57;;;;;;;;;;;;;;;24.92;41.59;95710.50;10399395;28;2050;-64
2023/06/25 17:18:58;;;;;;;;;;;;;;;24.92;41.25;95717.66;10394035;28;2010;-65
2023/06/25 17:23:58;;;;;;;;;;;;;;;24.89;41.26;95711.09;10395138;28;2035;-65
2023/06/25 17:28:58;;;;;;;;;;;;;;;24.88;41.07;95714.84;10399517;28;2030;-64
2023/06/25 17:33:59;;;;;;;;;;;;;;;24.89;41.05;95716.38;10407072;28;1961;-64
2023/06/25 17:38:59;;;;;;;;;;;;;;;24.88;41.29;95717.50;10402351;28;1888;-64
2023/06/25 17:44:01;;;;;;;;;;;;;;;24.90;41.13;95717.19;10400970;28;4721;-64
2023/06/25 17:49:01;;;;;;;;;;;;;;;24.90;41.41;95722.47;10399895;28;1902;-63
2023/06/25 17:54:01;;;;;;;;;;;;;;;24.90;41.28;95719.84;10401507;28;2037;-63
2023/06/25 17:59:02;;;;;;;;;;;;;;;24.91;41.58;95719.56;10394675;28;1835;-64
2023/06/25 18:04:02;;;;;;;;;;;;;;;24.89;41.22;95716.38;10396546;28;1863;-64
2023/06/25 18:09:03;;;;;;;;;;;;;;;24.89;41.24;95723.59;10395875;28;2154;-64
2023/06/25 18:14:03;;;;;;;;;;;;;;;24.87;40.98;95715.91;10399928;28;2449;-64
2023/06/25 18:19:03;;;;;;;;;;;;;;;24.86;41.00;95721.53;10403682;28;1895;-64
2023/06/25 18:24:04;;;;;;;;;;;;;;;24.85;40.30;95723.38;10414295;28;1910;-62
2023/06/25 18:29:04;;;;;;;;;;;;;;;24.79;37.42;95715.88;10405951;28;1862;-62
2023/06/25 18:34:05;;;;;;;;;;;;;;;24.72;37.95;95718.13;10411072;28;2013;-62
2023/06/25 18:39:05;;;;;;;;;;;;;;;24.67;37.48;95712.91;10408066;28;1871;-62
2023/06/25 18:44:05;;;;;;;;;;;;;;;24.62;37.87;95713.84;10406135;28;5026;-62
2023/06/25 18:49:05;;;;;;;;;;;;;;;24.60;37.30;95712.56;10404942;28;1826;-62
2023/06/25 18:54:06;;;;;;;;;;;;;;;24.59;36.87;95713.63;10411956;28;1956;-62
2023/06/25 18:59:06;;;;;;;;;;;;;;;24.58;37.17;95720.03;10401321;28;1870;-62
2023/06/25 19:04:07;;;;;;;;;;;;;;;24.56;37.16;95719.53;10403934;28;1922;-62
2023/06/25 19:09:08;;;;;;;;;;;;;;;24.55;37.26;95725.91;10413154;28;1851;-62
2023/06/25 19:14:08;;;;;;;;;;;;;;;24.54;37.42;95729.66;10416813;28;2300;-62
2023/06/25 19:19:08;;;;;;;;;;;;;;;24.52;37.36;95729.97;10401263;28;2058;-62
2023/06/25 19:24:09;;;;;;;;;;;;;;;24.50;37.41;95732.13;10402965;28;2029;-63
2023/06/25 19:29:09;;;;;;;;;;;;;;;24.50;36.71;95728.69;10403287;28;2022;-62
2023/06/25 19:34:09;;;;;;;;;;;;;;;24.49;36.82;95738.50;10397600;28;1947;-62
2023/06/25 19:39:09;;;;;;;;;;;;;;;24.47;37.16;95739.88;10399318;28;1510;-62
2023/06/25 19:44:10;;;;;;;;;;;;;;;24.46;36.58;95740.97;10399113;28;4690;-62
2023/06/25 19:49:10;;;;;;;;;;;;;;;24.45;36.77;95736.75;10404162;28;1429;-63
2023/06/25 19:54:10;;;;;;;;;;;;;;;24.48;36.82;95730.84;10401106;28;1927;-62
2023/06/25 19:59:10;;;;;;;;;;;;;;;24.47;36.72;95745.19;10403844;28;1608;-62
2023/06/25 20:04:11;;;;;;;;;;;;;;;24.49;36.61;95745.66;10406675;28;1370;-62
2023/06/25 20:09:11;;;;;;;;;;;;;;;24.49;36.52;95748.31;10403545;28;1384;-61
2023/06/25 20:14:11;;;;;;;;;;;;;;;24.51;36.43;95748.78;10400942;28;1961;-62
2023/06/25 20:19:12;;;;;;;;;;;;;;;24.53;36.65;95751.94;10404512;28;1707;-62
2023/06/25 20:24:12;;;;;;;;;;;;;;;24.54;36.90;95756.16;10399181;28;1485;-61
2023/06/25 20:29:12;;;;;;;;;;;;;;;24.58;37.15;95757.13;10405873;28;1418;-61
2023/06/25 20:34:13;;;;;;;;;;;;;;;24.60;37.03;95760.28;10398718;28;1909;-61
2023/06/25 20:39:13;;;;;;;;;;;;;;;24.60;37.33;95750.47;10400692;28;1473;-61
2023/06/25 20:44:15;;;;;;;;;;;;;;;24.62;37.00;95747.50;10398283;28;4667;-62
2023/06/25 20:49:19;;;;;;;;;;;;;;;24.62;36.75;95747.50;10398598;28;1494;-61
2023/06/25 20:54:19;;;;;;;;;;;;;;;24.63;36.78;95752.50;10405988;28;1918;-61
2023/06/25 20:59:19;;;;;;;;;;;;;;;24.64;37.09;95756.72;10407200;28;1414;-61
2023/06/25 21:04:19;;;;;;;;;;;;;;;24.67;36.89;95765.94;10400526;28;2233;-62
2023/06/25 21:09:20;;;;;;;;;;;;;;;24.68;37.09;95764.84;10401251;28;1886;-62
2023/06/25 21:14:20;;;;;;;;;;;;;;;24.65;37.10;95766.22;10402087;28;1957;-62
2023/06/25 21:19:20;;;;;;;;;;;;;;;24.60;37.05;95761.06;10402393;28;1864;-62
2023/06/25 21:24:20;;;;;;;;;;;;;;;24.58;36.93;95762.44;10405602;28;1982;-62
2023/06/25 21:29:21;;;;;;;;;;;;;;;24.54;36.90;95761.47;10404682;28;1878;-62
2023/06/25 21:34:21;;;;;;;;;;;;;;;24.48;36.56;95765.31;10407102;28;1979;-62
2023/06/25 21:39:21;;;;;;;;;;;;;;;24.42;36.57;95769.16;10402444;28;1891;-62
2023/06/25 21:44:21;;;;;;;;;;;;;;;24.35;36.10;95772.19;10402171;28;4748;-61
2023/06/25 21:49:22;;;;;;;;;;;;;;;24.29;35.85;95775.25;10402919;28;1756;-62
2023/06/25 21:54:22;;;;;;;;;;;;;;;24.24;36.18;95770.81;10400194;28;1969;-61
2023/06/25 21:59:23;;;;;;;;;;;;;;;24.21;36.15;95769.53;10403421;28;2339;-62
2023/06/25 22:04:23;;;;;;;;;;;;;;;24.19;36.08;95777.00;10403274;28;1872;-62
2023/06/25 22:09:24;;;;;;;;;;;;;;;24.18;36.19;95774.66;10399364;28;1773;-62
2023/06/25 22:14:24;;;;;;;;;;;;;;;24.14;36.39;95771.81;10399629;28;1918;-62
2023/06/25 22:19:25;;;;;;;;;;;;;;;24.11;35.94;95775.06;10396066;28;1839;-63
2023/06/25 22:24:25;;;;;;;;;;;;;;;24.10;36.05;95784.09;10406059;28;2177;-62
2023/06/25 22:29:25;;;;;;;;;;;;;;;24.10;36.06;95780.66;10402259;28;1912;-63
2023/06/25 22:34:26;;;;;;;;;;;;;;;24.07;36.15;95771.41;10398914;28;1910;-62
2023/06/25 22:39:27;;;;;;;;;;;;;;;24.07;35.88;95778.59;10399116;28;2006;-63
2023/06/25 22:44:27;;;;;;;;;;;;;;;24.06;36.19;95777.03;10396847;28;4646;-62
2023/06/25 22:49:31;;;;;;;;;;;;;;;24.03;36.02;95783.69;10389464;28;1914;-62
2023/06/25 22:54:31;;;;;;;;;;;;;;;24.02;36.16;95774.16;10411703;28;1998;-63
2023/06/25 22:59:32;;;;;;;;;;;;;;;23.99;35.93;95766.78;10407317;28;2291;-63
2023/06/25 23:04:32;;;;;;;;;;;;;;;23.95;36.08;95760.50;10386766;28;2095;-62
2023/06/25 23:09:33;;;;;;;;;;;;;;;23.97;36.29;95762.84;10400579;28;2006;-63
2023/06/25 23:14:33;;;;;;;;;;;;;;;23.94;36.38;95764.25;10407017;28;1971;-62
2023/06/25 23:19:33;;;;;;;;;;;;;;;23.92;36.41;95758.47;10403065;28;1944;-62
2023/06/25 23:24:37;;;;;;;;;;;;;;;23.87;36.15;95753.25;10407532;28;2034;-62
2023/06/25 23:29:37;;;;;;;;;;;;;;;23.86;36.29;95757.00;10401528;28;1965;-62
2023/06/25 23:34:37;;;;;;;;;;;;;;;23.81;36.41;95753.66;10415574;28;2035;-62
2023/06/25 23:39:38;;;;;;;;;;;;;;;23.80;36.56;95746.78;10408320;28;2002;-62
2023/06/25 23:44:38;;;;;;;;;;;;;;;23.78;36.63;95741.78;10397516;28;4700;-62
2023/06/25 23:49:38;;;;;;;;;;;;;;;23.74;36.39;95748.72;10410842;28;1933;-62
2023/06/25 23:54:38;;;;;;;;;;;;;;;23.75;36.31;95746.88;10409309;28;2254;-62
2023/06/25 23:59:39;;;;;;;;;;;;;;;23.73;36.55;95741.88;10407539;28;2072;-62
